sensor_id;sensor_type;location;lat;lon;timestamp;pressure;altitude;pressure_sealevel;temperature
27715;BMP280;16051;53.024;8.630;2022-12-07T00:00:30;101313.88;;;4.56
27715;BMP280;16051;53.024;8.630;2022-12-07T00:04:32;101316.47;;;4.40
27715;BMP280;16051;53.024;8.630;2022-12-07T00:08:35;101313.91;;;4.29
27715;BMP280;16051;53.024;8.630;2022-12-07T00:13:08;101311.59;;;4.28
27715;BMP280;16051;53.024;8.630;2022-12-07T00:17:15;101319.38;;;4.29
27715;BMP280;16051;53.024;8.630;2022-12-07T00:21:19;101318.34;;;4.20
27715;BMP280;16051;53.024;8.630;2022-12-07T00:25:21;101319.28;;;4.10
27715;BMP280;16051;53.024;8.630;2022-12-07T00:29:23;101310.66;;;4.11
27715;BMP280;16051;53.024;8.630;2022-12-07T00:33:27;101306.69;;;4.16
27715;BMP280;16051;53.024;8.630;2022-12-07T00:37:31;101314.22;;;4.08
27715;BMP280;16051;53.024;8.630;2022-12-07T00:41:33;101317.16;;;4.21
27715;BMP280;16051;53.024;8.630;2022-12-07T00:45:49;101315.72;;;4.13
27715;BMP280;16051;53.024;8.630;2022-12-07T00:49:52;101314.81;;;4.23
27715;BMP280;16051;53.024;8.630;2022-12-07T00:53:54;101319.59;;;4.15
27715;BMP280;16051;53.024;8.630;2022-12-07T00:57:56;101304.72;;;4.16
27715;BMP280;16051;53.024;8.630;2022-12-07T01:01:58;101305.25;;;4.08
27715;BMP280;16051;53.024;8.630;2022-12-07T01:06:08;101292.59;;;4.17
27715;BMP280;16051;53.024;8.630;2022-12-07T01:10:10;101293.88;;;4.09
27715;BMP280;16051;53.024;8.630;2022-12-07T01:14:14;101293.63;;;4.00
27715;BMP280;16051;53.024;8.630;2022-12-07T01:18:16;101299.41;;;4.06
27715;BMP280;16051;53.024;8.630;2022-12-07T01:22:19;101295.19;;;4.01
27715;BMP280;16051;53.024;8.630;2022-12-07T01:26:23;101304.56;;;4.00
27715;BMP280;16051;53.024;8.630;2022-12-07T01:30:25;101317.47;;;4.00
27715;BMP280;16051;53.024;8.630;2022-12-07T01:34:27;101309.66;;;3.98
27715;BMP280;16051;53.024;8.630;2022-12-07T01:38:32;101297.09;;;4.04
27715;BMP280;16051;53.024;8.630;2022-12-07T01:42:34;101295.28;;;3.94
27715;BMP280;16051;53.024;8.630;2022-12-07T01:46:37;101289.78;;;3.97
27715;BMP280;16051;53.024;8.630;2022-12-07T01:50:42;101291.44;;;3.88
27715;BMP280;16051;53.024;8.630;2022-12-07T01:54:51;101279.44;;;3.82
27715;BMP280;16051;53.024;8.630;2022-12-07T01:58:58;101282.22;;;3.78
27715;BMP280;16051;53.024;8.630;2022-12-07T02:03:08;101287.34;;;3.73
27715;BMP280;16051;53.024;8.630;2022-12-07T02:07:11;101285.06;;;3.71
27715;BMP280;16051;53.024;8.630;2022-12-07T02:11:16;101288.53;;;3.75
27715;BMP280;16051;53.024;8.630;2022-12-07T02:15:22;101290.00;;;3.80
27715;BMP280;16051;53.024;8.630;2022-12-07T02:20:12;101283.53;;;3.67
27715;BMP280;16051;53.024;8.630;2022-12-07T02:24:33;101270.34;;;3.62
27715;BMP280;16051;53.024;8.630;2022-12-07T02:29:02;101269.53;;;3.65
27715;BMP280;16051;53.024;8.630;2022-12-07T02:33:14;101264.22;;;3.54
27715;BMP280;16051;53.024;8.630;2022-12-07T02:37:31;101256.41;;;3.53
27715;BMP280;16051;53.024;8.630;2022-12-07T02:41:44;101256.47;;;3.49
27715;BMP280;16051;53.024;8.630;2022-12-07T02:46:10;101266.56;;;3.52
27715;BMP280;16051;53.024;8.630;2022-12-07T02:50:33;101264.50;;;3.60
27715;BMP280;16051;53.024;8.630;2022-12-07T02:54:35;101257.41;;;3.66
27715;BMP280;16051;53.024;8.630;2022-12-07T02:58:50;101259.97;;;3.76
27715;BMP280;16051;53.024;8.630;2022-12-07T03:03:04;101256.41;;;3.83
27715;BMP280;16051;53.024;8.630;2022-12-07T03:07:21;101270.22;;;3.72
27715;BMP280;16051;53.024;8.630;2022-12-07T03:11:33;101270.47;;;3.81
27715;BMP280;16051;53.024;8.630;2022-12-07T03:15:47;101274.91;;;3.72
27715;BMP280;16051;53.024;8.630;2022-12-07T03:19:58;101265.16;;;3.71
27715;BMP280;16051;53.024;8.630;2022-12-07T03:24:11;101263.34;;;3.61
27715;BMP280;16051;53.024;8.630;2022-12-07T03:28:18;101269.88;;;3.67
27715;BMP280;16051;53.024;8.630;2022-12-07T03:32:27;101265.09;;;3.74
27715;BMP280;16051;53.024;8.630;2022-12-07T03:36:44;101264.84;;;3.65
27715;BMP280;16051;53.024;8.630;2022-12-07T03:40:56;101268.31;;;3.66
27715;BMP280;16051;53.024;8.630;2022-12-07T03:45:03;101266.38;;;3.66
27715;BMP280;16051;53.024;8.630;2022-12-07T03:49:12;101265.94;;;3.71
27715;BMP280;16051;53.024;8.630;2022-12-07T03:53:25;101257.09;;;3.60
27715;BMP280;16051;53.024;8.630;2022-12-07T03:57:31;101265.34;;;3.57
27715;BMP280;16051;53.024;8.630;2022-12-07T04:01:34;101262.69;;;3.50
27715;BMP280;16051;53.024;8.630;2022-12-07T04:05:43;101258.06;;;3.46
27715;BMP280;16051;53.024;8.630;2022-12-07T04:09:47;101266.56;;;3.52
27715;BMP280;16051;53.024;8.630;2022-12-07T04:13:49;101259.91;;;3.53
27715;BMP280;16051;53.024;8.630;2022-12-07T04:18:08;101259.53;;;3.51
27715;BMP280;16051;53.024;8.630;2022-12-07T04:22:11;101256.84;;;3.47
27715;BMP280;16051;53.024;8.630;2022-12-07T04:26:14;101257.81;;;3.34
27715;BMP280;16051;53.024;8.630;2022-12-07T04:30:16;101257.47;;;3.32
27715;BMP280;16051;53.024;8.630;2022-12-07T04:34:20;101264.19;;;3.24
27715;BMP280;16051;53.024;8.630;2022-12-07T04:38:38;101271.66;;;3.16
27715;BMP280;16051;53.024;8.630;2022-12-07T04:42:41;101268.19;;;3.12
27715;BMP280;16051;53.024;8.630;2022-12-07T04:46:44;101260.44;;;3.11
27715;BMP280;16051;53.024;8.630;2022-12-07T04:50:48;101255.34;;;3.13
27715;BMP280;16051;53.024;8.630;2022-12-07T04:54:51;101244.75;;;3.18
27715;BMP280;16051;53.024;8.630;2022-12-07T04:58:54;101242.81;;;3.15
27715;BMP280;16051;53.024;8.630;2022-12-07T05:02:57;101259.16;;;3.19
27715;BMP280;16051;53.024;8.630;2022-12-07T05:06:59;101246.66;;;3.21
27715;BMP280;16051;53.024;8.630;2022-12-07T05:11:09;101239.97;;;3.26
27715;BMP280;16051;53.024;8.630;2022-12-07T05:15:33;101241.66;;;3.16
27715;BMP280;16051;53.024;8.630;2022-12-07T05:19:35;101244.75;;;3.18
27715;BMP280;16051;53.024;8.630;2022-12-07T05:23:37;101240.09;;;3.15
27715;BMP280;16051;53.024;8.630;2022-12-07T05:27:39;101240.47;;;3.17
27715;BMP280;16051;53.024;8.630;2022-12-07T05:31:44;101237.81;;;3.10
27715;BMP280;16051;53.024;8.630;2022-12-07T05:35:47;101243.25;;;3.14
27715;BMP280;16051;53.024;8.630;2022-12-07T05:39:49;101242.59;;;3.03
27715;BMP280;16051;53.024;8.630;2022-12-07T05:43:51;101228.59;;;2.97
27715;BMP280;16051;53.024;8.630;2022-12-07T05:47:54;101232.09;;;2.97
27715;BMP280;16051;53.024;8.630;2022-12-07T05:51:58;101234.09;;;2.93
27715;BMP280;16051;53.024;8.630;2022-12-07T05:56:00;101235.25;;;2.96
27715;BMP280;16051;53.024;8.630;2022-12-07T06:00:04;101245.00;;;2.93
27715;BMP280;16051;53.024;8.630;2022-12-07T06:04:08;101234.91;;;2.90
27715;BMP280;16051;53.024;8.630;2022-12-07T06:08:10;101236.78;;;2.97
27715;BMP280;16051;53.024;8.630;2022-12-07T06:12:43;101236.34;;;3.02
27715;BMP280;16051;53.024;8.630;2022-12-07T06:16:46;101243.72;;;3.05
27715;BMP280;16051;53.024;8.630;2022-12-07T06:20:50;101245.09;;;3.20
27715;BMP280;16051;53.024;8.630;2022-12-07T06:24:53;101252.53;;;3.20
27715;BMP280;16051;53.024;8.630;2022-12-07T06:28:55;101253.59;;;3.26
27715;BMP280;16051;53.024;8.630;2022-12-07T06:32:57;101261.81;;;3.26
27715;BMP280;16051;53.024;8.630;2022-12-07T06:37:29;101250.22;;;3.18
27715;BMP280;16051;53.024;8.630;2022-12-07T06:41:32;101259.03;;;3.29
27715;BMP280;16051;53.024;8.630;2022-12-07T06:45:34;101251.69;;;3.23
27715;BMP280;16051;53.024;8.630;2022-12-07T06:49:36;101253.16;;;3.31
27715;BMP280;16051;53.024;8.630;2022-12-07T06:54:05;101249.75;;;3.23
27715;BMP280;16051;53.024;8.630;2022-12-07T06:58:07;101248.09;;;3.29
27715;BMP280;16051;53.024;8.630;2022-12-07T07:02:10;101255.53;;;3.29
27715;BMP280;16051;53.024;8.630;2022-12-07T07:06:13;101263.66;;;3.36
27715;BMP280;16051;53.024;8.630;2022-12-07T07:10:17;101259.81;;;3.30
27715;BMP280;16051;53.024;8.630;2022-12-07T07:14:22;101274.94;;;3.38
27715;BMP280;16051;53.024;8.630;2022-12-07T07:18:25;101269.06;;;3.39
27715;BMP280;16051;53.024;8.630;2022-12-07T07:22:31;101273.28;;;3.44
27715;BMP280;16051;53.024;8.630;2022-12-07T07:26:34;101268.22;;;3.46
27715;BMP280;16051;53.024;8.630;2022-12-07T07:30:36;101268.47;;;3.55
27715;BMP280;16051;53.024;8.630;2022-12-07T07:34:39;101265.34;;;3.57
27715;BMP280;16051;53.024;8.630;2022-12-07T07:38:41;101255.69;;;3.48
27715;BMP280;16051;53.024;8.630;2022-12-07T07:42:47;101253.47;;;3.36
27715;BMP280;16051;53.024;8.630;2022-12-07T07:46:55;101260.31;;;3.21
27715;BMP280;16051;53.024;8.630;2022-12-07T07:51:00;101269.63;;;3.24
27715;BMP280;16051;53.024;8.630;2022-12-07T07:55:05;101278.75;;;3.10
27715;BMP280;16051;53.024;8.630;2022-12-07T07:59:10;101289.25;;;3.12
27715;BMP280;16051;53.024;8.630;2022-12-07T08:03:12;101287.31;;;3.12
27715;BMP280;16051;53.024;8.630;2022-12-07T08:07:21;101289.22;;;3.15
27715;BMP280;16051;53.024;8.630;2022-12-07T08:15:43;101279.34;;;3.28
27715;BMP280;16051;53.024;8.630;2022-12-07T08:19:45;101277.75;;;3.31
27715;BMP280;16051;53.024;8.630;2022-12-07T08:23:57;101267.97;;;3.33
27715;BMP280;16051;53.024;8.630;2022-12-07T08:27:59;101277.97;;;3.47
27715;BMP280;16051;53.024;8.630;2022-12-07T08:32:04;101291.06;;;3.59
27715;BMP280;16051;53.024;8.630;2022-12-07T08:36:09;101299.38;;;3.48
27715;BMP280;16051;53.024;8.630;2022-12-07T08:40:13;101308.28;;;3.56
27715;BMP280;16051;53.024;8.630;2022-12-07T08:44:16;101298.25;;;3.46
27715;BMP280;16051;53.024;8.630;2022-12-07T08:48:20;101304.06;;;3.48
27715;BMP280;16051;53.024;8.630;2022-12-07T08:52:25;101308.72;;;3.51
27715;BMP280;16051;53.024;8.630;2022-12-07T08:56:27;101311.44;;;3.51
27715;BMP280;16051;53.024;8.630;2022-12-07T09:00:38;101318.88;;;3.51
27715;BMP280;16051;53.024;8.630;2022-12-07T09:04:41;101309.34;;;3.62
27715;BMP280;16051;53.024;8.630;2022-12-07T09:08:49;101300.31;;;3.69
27715;BMP280;16051;53.024;8.630;2022-12-07T09:12:52;101306.97;;;3.68
27715;BMP280;16051;53.024;8.630;2022-12-07T09:16:54;101306.63;;;3.62
27715;BMP280;16051;53.024;8.630;2022-12-07T09:20:57;101309.78;;;3.61
27715;BMP280;16051;53.024;8.630;2022-12-07T09:25:01;101295.28;;;3.64
27715;BMP280;16051;53.024;8.630;2022-12-07T09:29:03;101300.31;;;3.69
27715;BMP280;16051;53.024;8.630;2022-12-07T09:33:05;101300.31;;;3.69
27715;BMP280;16051;53.024;8.630;2022-12-07T09:37:09;101294.75;;;3.76
27715;BMP280;16051;53.024;8.630;2022-12-07T09:41:40;101290.31;;;3.85
27715;BMP280;16051;53.024;8.630;2022-12-07T09:45:46;101288.81;;;3.81
27715;BMP280;16051;53.024;8.630;2022-12-07T09:49:49;101289.44;;;3.65
27715;BMP280;16051;53.024;8.630;2022-12-07T09:53:56;101296.72;;;3.75
27715;BMP280;16051;53.024;8.630;2022-12-07T09:57:59;101279.63;;;3.68
27715;BMP280;16051;53.024;8.630;2022-12-07T10:02:28;101269.78;;;3.74
27715;BMP280;16051;53.024;8.630;2022-12-07T10:06:47;101278.03;;;3.70
27715;BMP280;16051;53.024;8.630;2022-12-07T10:10:55;101279.94;;;3.73
27715;BMP280;16051;53.024;8.630;2022-12-07T10:15:04;101282.56;;;3.80
27715;BMP280;16051;53.024;8.630;2022-12-07T10:19:24;101281.72;;;3.87
27715;BMP280;16051;53.024;8.630;2022-12-07T10:23:26;101247.69;;;3.91
27715;BMP280;16051;53.024;8.630;2022-12-07T10:27:33;101245.25;;;3.97
27715;BMP280;16051;53.024;8.630;2022-12-07T10:31:39;101248.25;;;4.06
27715;BMP280;16051;53.024;8.630;2022-12-07T10:35:43;101236.06;;;4.11
27715;BMP280;16051;53.024;8.630;2022-12-07T10:39:48;101237.91;;;4.17
27715;BMP280;16051;53.024;8.630;2022-12-07T10:43:54;101238.22;;;4.23
27715;BMP280;16051;53.024;8.630;2022-12-07T10:48:08;101240.13;;;4.26
27715;BMP280;16051;53.024;8.630;2022-12-07T10:52:24;101236.84;;;4.34
27715;BMP280;16051;53.024;8.630;2022-12-07T10:56:56;101229.78;;;4.37
27715;BMP280;16051;53.024;8.630;2022-12-07T11:01:14;101227.72;;;4.44
27715;BMP280;16051;53.024;8.630;2022-12-07T11:05:28;101221.75;;;4.50
27715;BMP280;16051;53.024;8.630;2022-12-07T11:09:51;101231.03;;;4.56
27715;BMP280;16051;53.024;8.630;2022-12-07T11:14:08;101229.44;;;4.58
27715;BMP280;16051;53.024;8.630;2022-12-07T11:18:24;101223.44;;;4.63
27715;BMP280;16051;53.024;8.630;2022-12-07T11:22:40;101207.41;;;4.65
27715;BMP280;16051;53.024;8.630;2022-12-07T11:27:01;101202.59;;;4.73
27715;BMP280;16051;53.024;8.630;2022-12-07T11:31:16;101204.00;;;4.81
27715;BMP280;16051;53.024;8.630;2022-12-07T11:35:50;101197.75;;;4.80
27715;BMP280;16051;53.024;8.630;2022-12-07T11:40:16;101204.13;;;4.74
27715;BMP280;16051;53.024;8.630;2022-12-07T11:44:30;101201.13;;;4.88
27715;BMP280;16051;53.024;8.630;2022-12-07T11:48:41;101184.03;;;5.00
27715;BMP280;16051;53.024;8.630;2022-12-07T11:52:52;101181.53;;;5.09
27715;BMP280;16051;53.024;8.630;2022-12-07T11:57:02;101161.50;;;5.12
27715;BMP280;16051;53.024;8.630;2022-12-07T12:01:18;101168.88;;;5.15
27715;BMP280;16051;53.024;8.630;2022-12-07T12:05:26;101169.44;;;5.26
27715;BMP280;16051;53.024;8.630;2022-12-07T12:09:36;101163.38;;;5.35
27715;BMP280;16051;53.024;8.630;2022-12-07T12:14:19;101153.25;;;5.32
27715;BMP280;16051;53.024;8.630;2022-12-07T12:18:43;101155.25;;;5.31
27715;BMP280;16051;53.024;8.630;2022-12-07T12:22:55;101147.44;;;5.30
27715;BMP280;16051;53.024;8.630;2022-12-07T12:27:06;101147.38;;;5.33
27715;BMP280;16051;53.024;8.630;2022-12-07T12:31:14;101142.00;;;5.46
27715;BMP280;16051;53.024;8.630;2022-12-07T12:35:30;101135.22;;;5.34
27715;BMP280;16051;53.024;8.630;2022-12-07T12:39:32;101131.63;;;5.37
27715;BMP280;16051;53.024;8.630;2022-12-07T12:43:50;101133.25;;;5.35
27715;BMP280;16051;53.024;8.630;2022-12-07T12:47:58;101132.63;;;5.27
27715;BMP280;16051;53.024;8.630;2022-12-07T12:56:47;101138.19;;;5.24
27715;BMP280;16051;53.024;8.630;2022-12-07T13:05:47;101126.78;;;5.25
27715;BMP280;16051;53.024;8.630;2022-12-07T13:09:49;101121.69;;;5.27
27715;BMP280;16051;53.024;8.630;2022-12-07T13:13:51;101116.63;;;5.26
27715;BMP280;16051;53.024;8.630;2022-12-07T13:18:04;101122.22;;;5.38
27715;BMP280;16051;53.024;8.630;2022-12-07T13:22:48;101123.66;;;5.27
27715;BMP280;16051;53.024;8.630;2022-12-07T13:26:56;101112.94;;;5.32
27715;BMP280;16051;53.024;8.630;2022-12-07T13:31:13;101115.88;;;5.41
27715;BMP280;16051;53.024;8.630;2022-12-07T13:35:31;101125.53;;;5.30
27715;BMP280;16051;53.024;8.630;2022-12-07T13:39:44;101129.63;;;5.22
27715;BMP280;16051;53.024;8.630;2022-12-07T13:43:53;101136.50;;;5.10
27715;BMP280;16051;53.024;8.630;2022-12-07T13:47:57;101138.34;;;4.97
27715;BMP280;16051;53.024;8.630;2022-12-07T13:52:17;101139.63;;;4.92
27715;BMP280;16051;53.024;8.630;2022-12-07T13:56:35;101129.41;;;4.77
27715;BMP280;16051;53.024;8.630;2022-12-07T14:00:41;101126.59;;;4.80
27715;BMP280;16051;53.024;8.630;2022-12-07T14:04:44;101122.50;;;4.69
27715;BMP280;16051;53.024;8.630;2022-12-07T14:08:46;101119.84;;;4.65
27715;BMP280;16051;53.024;8.630;2022-12-07T14:12:50;101118.09;;;4.55
27715;BMP280;16051;53.024;8.630;2022-12-07T14:17:02;101131.78;;;4.55
27715;BMP280;16051;53.024;8.630;2022-12-07T14:21:19;101129.69;;;4.63
27715;BMP280;16051;53.024;8.630;2022-12-07T14:25:25;101135.03;;;4.46
27715;BMP280;16051;53.024;8.630;2022-12-07T14:29:33;101123.59;;;4.32
27715;BMP280;16051;53.024;8.630;2022-12-07T14:33:35;101133.47;;;4.26
27715;BMP280;16051;53.024;8.630;2022-12-07T14:37:41;101128.47;;;4.21
27715;BMP280;16051;53.024;8.630;2022-12-07T14:41:43;101134.56;;;4.09
27715;BMP280;16051;53.024;8.630;2022-12-07T14:45:56;101115.25;;;3.96
27715;BMP280;16051;53.024;8.630;2022-12-07T14:49:58;101116.78;;;3.74
27715;BMP280;16051;53.024;8.630;2022-12-07T14:54:00;101120.50;;;3.87
27715;BMP280;16051;53.024;8.630;2022-12-07T14:58:02;101116.66;;;3.81
27715;BMP280;16051;53.024;8.630;2022-12-07T15:02:06;101115.53;;;3.78
27715;BMP280;16051;53.024;8.630;2022-12-07T15:06:16;101104.22;;;3.76
27715;BMP280;16051;53.024;8.630;2022-12-07T15:10:23;101093.41;;;3.69
27715;BMP280;16051;53.024;8.630;2022-12-07T15:14:30;101108.56;;;3.74
27715;BMP280;16051;53.024;8.630;2022-12-07T15:18:33;101108.41;;;3.61
27715;BMP280;16051;53.024;8.630;2022-12-07T15:22:35;101108.41;;;3.61
27715;BMP280;16051;53.024;8.630;2022-12-07T15:26:38;101121.50;;;3.46
27715;BMP280;16051;53.024;8.630;2022-12-07T15:30:42;101122.31;;;3.43
27715;BMP280;16051;53.024;8.630;2022-12-07T15:34:46;101110.34;;;3.34
27715;BMP280;16051;53.024;8.630;2022-12-07T15:38:48;101113.38;;;3.13
27715;BMP280;16051;53.024;8.630;2022-12-07T15:42:51;101106.03;;;3.10
27715;BMP280;16051;53.024;8.630;2022-12-07T15:46:53;101105.34;;;3.02
27715;BMP280;16051;53.024;8.630;2022-12-07T15:51:03;101100.75;;;2.95
27715;BMP280;16051;53.024;8.630;2022-12-07T15:55:08;101098.81;;;2.96
27715;BMP280;16051;53.024;8.630;2022-12-07T15:59:10;101097.56;;;3.01
27715;BMP280;16051;53.024;8.630;2022-12-07T16:03:12;101084.53;;;3.12
27715;BMP280;16051;53.024;8.630;2022-12-07T16:07:16;101086.91;;;3.10
27715;BMP280;16051;53.024;8.630;2022-12-07T16:11:19;101088.63;;;3.00
27715;BMP280;16051;53.024;8.630;2022-12-07T16:15:21;101081.56;;;3.03
27715;BMP280;16051;53.024;8.630;2022-12-07T16:19:25;101064.31;;;3.09
27715;BMP280;16051;53.024;8.630;2022-12-07T16:23:29;101072.09;;;3.11
27715;BMP280;16051;53.024;8.630;2022-12-07T16:27:31;101082.84;;;3.21
27715;BMP280;16051;53.024;8.630;2022-12-07T16:31:33;101075.84;;;3.20
27715;BMP280;16051;53.024;8.630;2022-12-07T16:35:38;101082.44;;;3.23
27715;BMP280;16051;53.024;8.630;2022-12-07T16:39:42;101078.81;;;3.29
27715;BMP280;16051;53.024;8.630;2022-12-07T16:43:45;101081.16;;;3.31
27715;BMP280;16051;53.024;8.630;2022-12-07T16:47:47;101071.19;;;3.44
27715;BMP280;16051;53.024;8.630;2022-12-07T16:51:50;101080.63;;;3.39
27715;BMP280;16051;53.024;8.630;2022-12-07T16:55:53;101071.28;;;3.37
27715;BMP280;16051;53.024;8.630;2022-12-07T16:59:55;101070.06;;;3.41
27715;BMP280;16051;53.024;8.630;2022-12-07T17:03:58;101072.03;;;3.41
27715;BMP280;16051;53.024;8.630;2022-12-07T17:08:03;101065.13;;;3.33
27715;BMP280;16051;53.024;8.630;2022-12-07T17:12:06;101071.00;;;3.31
27715;BMP280;16051;53.024;8.630;2022-12-07T17:16:08;101064.03;;;3.27
27715;BMP280;16051;53.024;8.630;2022-12-07T17:20:11;101067.84;;;3.33
27715;BMP280;16051;53.024;8.630;2022-12-07T17:24:16;101065.16;;;3.29
27715;BMP280;16051;53.024;8.630;2022-12-07T17:28:20;101051.50;;;3.29
27715;BMP280;16051;53.024;8.630;2022-12-07T17:32:22;101047.38;;;3.21
27715;BMP280;16051;53.024;8.630;2022-12-07T17:36:27;101043.53;;;3.15
27715;BMP280;16051;53.024;8.630;2022-12-07T17:40:29;101043.97;;;3.14
27715;BMP280;16051;53.024;8.630;2022-12-07T17:44:59;101034.22;;;3.13
27715;BMP280;16051;53.024;8.630;2022-12-07T17:49:08;101027.88;;;3.19
27715;BMP280;16051;53.024;8.630;2022-12-07T17:53:11;101029.53;;;3.13
27715;BMP280;16051;53.024;8.630;2022-12-07T17:57:13;101028.38;;;3.14
27715;BMP280;16051;53.024;8.630;2022-12-07T18:01:23;101023.16;;;3.23
27715;BMP280;16051;53.024;8.630;2022-12-07T18:05:25;101011.09;;;3.21
27715;BMP280;16051;53.024;8.630;2022-12-07T18:09:28;101017.53;;;3.34
27715;BMP280;16051;53.024;8.630;2022-12-07T18:13:30;101011.00;;;3.28
27715;BMP280;16051;53.024;8.630;2022-12-07T18:17:39;101007.44;;;3.31
27715;BMP280;16051;53.024;8.630;2022-12-07T18:21:43;101003.81;;;3.37
27715;BMP280;16051;53.024;8.630;2022-12-07T18:25:47;100993.47;;;3.48
27715;BMP280;16051;53.024;8.630;2022-12-07T18:29:49;100995.28;;;3.35
27715;BMP280;16051;53.024;8.630;2022-12-07T18:33:54;100987.59;;;3.27
27715;BMP280;16051;53.024;8.630;2022-12-07T18:38:00;100991.16;;;3.24
27715;BMP280;16051;53.024;8.630;2022-12-07T18:42:03;100987.59;;;3.27
27715;BMP280;16051;53.024;8.630;2022-12-07T18:46:10;100976.56;;;3.11
27715;BMP280;16051;53.024;8.630;2022-12-07T18:50:14;100978.63;;;3.03
27715;BMP280;16051;53.024;8.630;2022-12-07T18:54:18;100974.53;;;3.15
27715;BMP280;16051;53.024;8.630;2022-12-07T18:58:20;100962.31;;;3.00
27715;BMP280;16051;53.024;8.630;2022-12-07T19:02:22;100970.50;;;3.00
27715;BMP280;16051;53.024;8.630;2022-12-07T19:06:25;100964.31;;;2.95
27715;BMP280;16051;53.024;8.630;2022-12-07T19:10:27;100963.22;;;2.89
27715;BMP280;16051;53.024;8.630;2022-12-07T19:14:32;100956.19;;;2.92
27715;BMP280;16051;53.024;8.630;2022-12-07T19:18:40;100956.22;;;2.88
27715;BMP280;16051;53.024;8.630;2022-12-07T19:22:51;100949.28;;;2.84
27715;BMP280;16051;53.024;8.630;2022-12-07T19:26:53;100948.44;;;2.87
27715;BMP280;16051;53.024;8.630;2022-12-07T19:31:17;100957.13;;;2.82
27715;BMP280;16051;53.024;8.630;2022-12-07T19:35:19;100955.91;;;2.83
27715;BMP280;16051;53.024;8.630;2022-12-07T19:39:23;100944.59;;;2.84
27715;BMP280;16051;53.024;8.630;2022-12-07T19:43:25;100936.53;;;2.77
27715;BMP280;16051;53.024;8.630;2022-12-07T19:47:28;100940.03;;;2.78
27715;BMP280;16051;53.024;8.630;2022-12-07T19:51:31;100937.84;;;2.66
27715;BMP280;16051;53.024;8.630;2022-12-07T19:55:38;100933.03;;;2.77
27715;BMP280;16051;53.024;8.630;2022-12-07T19:59:54;100931.91;;;2.74
27715;BMP280;16051;53.024;8.630;2022-12-07T20:04:10;100918.25;;;2.74
27715;BMP280;16051;53.024;8.630;2022-12-07T20:08:12;100907.28;;;2.78
27715;BMP280;16051;53.024;8.630;2022-12-07T20:12:24;100906.56;;;2.74
27715;BMP280;16051;53.024;8.630;2022-12-07T20:16:44;100894.06;;;2.76
27715;BMP280;16051;53.024;8.630;2022-12-07T20:20:52;100893.75;;;2.71
27715;BMP280;16051;53.024;8.630;2022-12-07T20:24:56;100894.81;;;2.77
27715;BMP280;16051;53.024;8.630;2022-12-07T20:28:59;100885.16;;;2.72
27715;BMP280;16051;53.024;8.630;2022-12-07T20:33:02;100889.72;;;2.79
27715;BMP280;16051;53.024;8.630;2022-12-07T20:37:04;100883.56;;;2.75
27715;BMP280;16051;53.024;8.630;2022-12-07T20:41:09;100882.97;;;2.87
27715;BMP280;16051;53.024;8.630;2022-12-07T20:45:33;100865.75;;;2.90
27715;BMP280;16051;53.024;8.630;2022-12-07T20:49:37;100865.31;;;2.95
27715;BMP280;16051;53.024;8.630;2022-12-07T20:53:39;100862.50;;;2.98
27715;BMP280;16051;53.024;8.630;2022-12-07T20:57:41;100859.44;;;2.96
27715;BMP280;16051;53.024;8.630;2022-12-07T21:01:45;100860.56;;;2.99
27715;BMP280;16051;53.024;8.630;2022-12-07T21:05:47;100854.66;;;3.01
27715;BMP280;16051;53.024;8.630;2022-12-07T21:09:49;100846.91;;;2.99
27715;BMP280;16051;53.024;8.630;2022-12-07T21:13:57;100855.03;;;3.03
27715;BMP280;16051;53.024;8.630;2022-12-07T21:18:00;100855.81;;;3.03
27715;BMP280;16051;53.024;8.630;2022-12-07T21:22:03;100847.50;;;3.10
27715;BMP280;16051;53.024;8.630;2022-12-07T21:26:09;100838.94;;;3.08
27715;BMP280;16051;53.024;8.630;2022-12-07T21:30:12;100841.41;;;3.03
27715;BMP280;16051;53.024;8.630;2022-12-07T21:34:16;100844.84;;;3.07
27715;BMP280;16051;53.024;8.630;2022-12-07T21:38:18;100836.22;;;3.08
27715;BMP280;16051;53.024;8.630;2022-12-07T21:42:20;100819.19;;;3.01
27715;BMP280;16051;53.024;8.630;2022-12-07T21:46:25;100820.84;;;3.18
27715;BMP280;16051;53.024;8.630;2022-12-07T21:50:28;100820.22;;;3.10
27715;BMP280;16051;53.024;8.630;2022-12-07T21:54:31;100817.88;;;3.09
27715;BMP280;16051;53.024;8.630;2022-12-07T21:58:34;100813.66;;;3.04
27715;BMP280;16051;53.024;8.630;2022-12-07T22:02:44;100802.53;;;2.95
27715;BMP280;16051;53.024;8.630;2022-12-07T22:06:50;100798.97;;;2.98
27715;BMP280;16051;53.024;8.630;2022-12-07T22:10:52;100787.34;;;2.94
27715;BMP280;16051;53.024;8.630;2022-12-07T22:14:54;100794.81;;;2.90
27715;BMP280;16051;53.024;8.630;2022-12-07T22:19:10;100785.84;;;2.93
27715;BMP280;16051;53.024;8.630;2022-12-07T22:23:25;100784.69;;;2.90
27715;BMP280;16051;53.024;8.630;2022-12-07T22:27:27;100778.38;;;2.93
27715;BMP280;16051;53.024;8.630;2022-12-07T22:31:29;100773.84;;;2.87
27715;BMP280;16051;53.024;8.630;2022-12-07T22:35:32;100769.88;;;2.91
27715;BMP280;16051;53.024;8.630;2022-12-07T22:39:41;100765.97;;;2.92
27715;BMP280;16051;53.024;8.630;2022-12-07T22:43:43;100762.53;;;2.88
27715;BMP280;16051;53.024;8.630;2022-12-07T22:47:46;100755.75;;;2.96
27715;BMP280;16051;53.024;8.630;2022-12-07T22:51:48;100762.88;;;2.90
27715;BMP280;16051;53.024;8.630;2022-12-07T22:55:51;100764.16;;;2.82
27715;BMP280;16051;53.024;8.630;2022-12-07T23:00:09;100750.19;;;2.80
27715;BMP280;16051;53.024;8.630;2022-12-07T23:04:11;100763.63;;;2.91
27715;BMP280;16051;53.024;8.630;2022-12-07T23:08:14;100757.06;;;2.88
27715;BMP280;16051;53.024;8.630;2022-12-07T23:12:18;100735.31;;;2.85
27715;BMP280;16051;53.024;8.630;2022-12-07T23:16:39;100743.69;;;2.94
27715;BMP280;16051;53.024;8.630;2022-12-07T23:20:56;100746.09;;;2.92
27715;BMP280;16051;53.024;8.630;2022-12-07T23:24:58;100736.72;;;2.93
27715;BMP280;16051;53.024;8.630;2022-12-07T23:29:01;100732.44;;;2.92
27715;BMP280;16051;53.024;8.630;2022-12-07T23:33:03;100723.69;;;3.01
27715;BMP280;16051;53.024;8.630;2022-12-07T23:37:06;100721.22;;;2.86
27715;BMP280;16051;53.024;8.630;2022-12-07T23:41:12;100711.94;;;2.84
27715;BMP280;16051;53.024;8.630;2022-12-07T23:45:15;100710.31;;;2.86
27715;BMP280;16051;53.024;8.630;2022-12-07T23:49:18;100706.69;;;2.73
27715;BMP280;16051;53.024;8.630;2022-12-07T23:53:20;100687.78;;;2.82
27715;BMP280;16051;53.024;8.630;2022-12-07T23:57:28;100687.19;;;2.75
